Time;durP1;ratioP1;P1;durP2;ratioP2;P2;SDS_P1;SDS_P2;PMS_P1;PMS_P2;Temp;Humidity;BMP_temperature;BMP_pressure;BME280_temperature;BME280_humidity;BME280_pressure;Samples;Min_cycle;Max_cycle;Signal;HPM_P1;HPM_P2
2023/03/30 00:02:24;;;;;;;2.87;1.27;;;;;;;11.27;86.63;95308.47;4390515;32;20200;-52
2023/03/30 00:04:50;;;;;;;0.60;0.60;;;;;;;11.17;86.24;95314.00;4373982;32;20177;-48
2023/03/30 00:07:15;;;;;;;0.60;0.60;;;;;;;11.18;87.27;95307.59;4388984;32;20195;-52
2023/03/30 00:09:42;;;;;;;0.37;0.37;;;;;;;11.21;86.09;95297.19;4390496;32;20180;-51
2023/03/30 00:12:12;;;;;;;1.20;0.83;;;;;;;11.26;85.53;95304.22;4392722;32;20207;-50
2023/03/30 00:14:39;;;;;;;0.30;0.30;;;;;;;11.27;85.89;95305.81;4384823;32;20194;-49
2023/03/30 00:17:06;;;;;;;0.30;0.30;;;;;;;11.23;85.92;95296.84;4390670;32;20168;-50
2023/03/30 00:19:31;;;;;;;0.73;0.73;;;;;;;11.28;84.48;95294.09;4372961;32;20206;-50
2023/03/30 00:21:57;;;;;;;0.70;0.63;;;;;;;11.32;84.18;95287.09;4377474;32;20188;-49
2023/03/30 00:24:22;;;;;;;0.53;0.50;;;;;;;11.36;83.55;95286.22;4388722;32;20259;-49
2023/03/30 00:26:48;;;;;;;5.83;0.70;;;;;;;11.40;83.52;95286.41;4376837;32;20257;-52
2023/03/30 00:29:13;;;;;;;0.33;0.33;;;;;;;11.41;83.70;95272.06;4385703;32;20196;-52
2023/03/30 00:31:38;;;;;;;1.30;0.77;;;;;;;11.45;83.39;95273.00;4393191;32;20193;-49
2023/03/30 00:34:04;;;;;;;0.40;0.40;;;;;;;11.47;83.16;95278.81;4389475;32;20192;-52
2023/03/30 00:36:35;;;;;;;0.60;0.60;;;;;;;11.48;82.86;95271.62;4371642;32;21446;-50
2023/03/30 00:39:05;;;;;;;1.63;0.80;;;;;;;11.43;83.10;95264.53;4389410;32;20263;-50
2023/03/30 00:41:34;;;;;;;0.47;0.43;;;;;;;11.44;82.33;95263.47;4371632;32;20259;-48
2023/03/30 00:44:03;;;;;;;0.70;0.70;;;;;;;11.43;82.55;95261.88;4374789;32;20256;-51
2023/03/30 00:46:30;;;;;;;1.17;1.03;;;;;;;11.54;82.27;95255.28;4385317;32;20192;-50
2023/03/30 00:49:07;;;;;;;1.50;0.40;;;;;;;11.56;81.64;95247.78;4391138;32;20202;-48
2023/03/30 00:51:38;;;;;;;2.53;0.80;;;;;;;11.57;81.71;95249.38;4367342;32;20184;-50
2023/03/30 00:54:13;;;;;;;1.00;0.93;;;;;;;11.60;81.17;95243.47;4387766;32;20189;-47
2023/03/30 00:56:39;;;;;;;5.00;0.60;;;;;;;11.58;81.43;95236.87;4386676;32;20215;-50
2023/03/30 00:59:05;;;;;;;2.73;0.83;;;;;;;11.64;80.87;95239.09;4375431;32;20204;-49
2023/03/30 01:01:33;;;;;;;0.87;0.87;;;;;;;11.72;80.58;95226.97;4391271;32;20294;-52
2023/03/30 01:04:04;;;;;;;0.50;0.50;;;;;;;11.61;80.74;95230.97;4390467;32;20191;-52
2023/03/30 01:06:32;;;;;;;0.43;0.43;;;;;;;11.65;81.10;95230.03;4370344;32;20195;-50
2023/03/30 01:08:58;;;;;;;1.27;1.17;;;;;;;11.68;80.38;95234.75;4389365;32;20210;-46
2023/03/30 01:11:25;;;;;;;0.60;0.50;;;;;;;11.60;80.61;95216.88;4384560;32;20189;-52
2023/03/30 01:13:57;;;;;;;0.53;0.53;;;;;;;11.60;80.65;95222.19;4389135;32;20248;-50
2023/03/30 01:16:34;;;;;;;1.07;0.90;;;;;;;11.64;80.59;95217.81;4369988;32;20207;-51
2023/03/30 01:19:34;;;;;;;0.70;0.70;;;;;;;11.60;80.22;95221.41;4387149;32;20229;-49
2023/03/30 01:22:37;;;;;;;1.17;1.13;;;;;;;11.53;81.61;95211.19;4390014;32;20197;-52
2023/03/30 01:25:21;;;;;;;0.57;0.57;;;;;;;11.48;81.42;95215.84;4388991;32;20222;-48
2023/03/30 01:28:08;;;;;;;0.27;0.27;;;;;;;11.48;81.27;95218.50;4386945;32;20243;-50
2023/03/30 01:30:44;;;;;;;2.20;0.70;;;;;;;11.46;80.91;95216.13;4390403;32;20194;-51
2023/03/30 01:33:27;;;;;;;0.43;0.43;;;;;;;11.52;80.81;95217.59;4381530;32;20184;-50
2023/03/30 01:36:17;;;;;;;1.13;1.03;;;;;;;11.56;80.99;95205.28;4384102;32;20308;-47
2023/03/30 01:39:00;;;;;;;4.37;0.73;;;;;;;11.56;80.77;95210.59;4376076;32;20286;-49
2023/03/30 01:41:38;;;;;;;0.10;0.10;;;;;;;11.56;80.76;95204.50;4380078;32;20188;-50
2023/03/30 01:44:17;;;;;;;0.40;0.40;;;;;;;11.66;80.17;95207.69;4377085;32;20249;-49
2023/03/30 01:46:59;;;;;;;0.93;0.30;;;;;;;11.66;80.48;95212.22;4389006;32;20202;-52
2023/03/30 01:49:39;;;;;;;0.40;0.40;;;;;;;11.63;80.75;95204.88;4391985;32;20202;-50
2023/03/30 01:52:13;;;;;;;11.43;1.27;;;;;;;11.69;80.18;95204.44;4368913;32;20198;-48
2023/03/30 01:54:56;;;;;;;2.27;0.63;;;;;;;11.67;79.75;95189.88;4378310;32;20256;-49
2023/03/30 01:57:33;;;;;;;0.40;0.40;;;;;;;11.74;79.47;95211.50;4375340;32;20191;-47
2023/03/30 02:00:11;;;;;;;1.20;1.03;;;;;;;11.70;80.20;95210.53;4380425;32;20180;-50
2023/03/30 02:02:39;;;;;;;2.00;1.17;;;;;;;11.63;80.10;95213.63;4392331;32;20184;-50
2023/03/30 02:05:06;;;;;;;4.33;0.70;;;;;;;11.61;79.66;95223.78;4392965;32;20223;-49
2023/03/30 02:07:35;;;;;;;0.87;0.57;;;;;;;11.70;79.50;95226.47;4386051;32;20276;-49
2023/03/30 02:10:05;;;;;;;0.67;0.67;;;;;;;11.65;79.63;95230.03;4392717;32;20482;-50
2023/03/30 02:12:31;;;;;;;0.50;0.50;;;;;;;11.69;79.39;95230.22;4391293;32;20199;-51
2023/03/30 02:15:02;;;;;;;0.37;0.37;;;;;;;11.66;79.14;95226.28;4394226;32;20216;-47
2023/03/30 02:17:29;;;;;;;0.50;0.50;;;;;;;11.74;79.34;95221.34;4390664;32;20199;-50
2023/03/30 02:19:56;;;;;;;1.27;1.00;;;;;;;11.76;78.85;95216.50;4379357;32;20232;-46
2023/03/30 02:22:23;;;;;;;10.33;1.57;;;;;;;11.68;79.54;95224.13;4380021;32;20260;-47
2023/03/30 02:24:53;;;;;;;1.27;1.17;;;;;;;11.73;79.03;95223.22;4392360;32;20199;-53
2023/03/30 02:27:20;;;;;;;2.10;0.90;;;;;;;11.79;78.86;95223.91;4389629;32;20204;-46
2023/03/30 02:29:45;;;;;;;1.90;1.27;;;;;;;11.85;78.23;95212.06;4379474;32;20235;-48
2023/03/30 02:32:21;;;;;;;5.63;1.43;;;;;;;11.86;78.62;95218.94;4392777;32;20218;-60
2023/03/30 02:35:18;;;;;;;0.60;0.50;;;;;;;11.89;78.06;95218.34;4392141;32;20181;-49
2023/03/30 02:37:58;;;;;;;3.07;0.73;;;;;;;11.91;78.20;95218.81;4388671;32;20196;-47
2023/03/30 02:41:02;;;;;;;1.67;1.00;;;;;;;11.79;79.53;95229.22;4392361;32;20211;-48
2023/03/30 02:43:57;;;;;;;0.53;0.53;;;;;;;11.80;79.48;95239.56;4356748;32;20184;-51
2023/03/30 02:46:38;;;;;;;1.00;0.93;;;;;;;11.91;78.65;95258.69;4343605;32;20245;-49
2023/03/30 02:49:18;;;;;;;0.40;0.37;;;;;;;11.99;79.15;95258.75;4392925;32;20233;-48
2023/03/30 02:51:55;;;;;;;1.00;0.90;;;;;;;12.06;79.74;95266.28;4387640;32;20203;-47
2023/03/30 02:54:38;;;;;;;3.20;1.53;;;;;;;12.03;80.58;95272.25;4379748;32;20184;-48
2023/03/30 02:57:19;;;;;;;3.30;0.77;;;;;;;12.06;80.37;95274.28;4393197;32;20185;-51
2023/03/30 03:00:20;;;;;;;5.43;0.70;;;;;;;12.11;81.06;95291.97;4389068;32;20248;-51
2023/03/30 03:02:52;;;;;;;0.70;0.70;;;;;;;12.14;82.13;95294.03;4383289;32;20192;-53
2023/03/30 03:05:19;;;;;;;0.47;0.47;;;;;;;12.21;82.94;95284.56;4392451;32;20191;-49
2023/03/30 03:07:46;;;;;;;5.70;1.27;;;;;;;12.20;83.10;95276.88;4392441;32;20195;-49
2023/03/30 03:10:12;;;;;;;2.03;0.87;;;;;;;12.18;83.76;95274.53;4382532;32;20263;-48
2023/03/30 03:12:38;;;;;;;7.50;1.63;;;;;;;12.19;84.16;95276.09;4392974;32;20203;-51
2023/03/30 03:15:04;;;;;;;0.93;0.93;;;;;;;12.16;84.54;95282.00;4389728;32;20210;-46
2023/03/30 03:17:33;;;;;;;1.33;1.23;;;;;;;12.17;84.37;95293.44;4376060;32;20275;-51
2023/03/30 03:20:01;;;;;;;4.17;0.93;;;;;;;12.31;84.20;95294.94;4392548;32;20323;-52
2023/03/30 03:22:26;;;;;;;3.30;2.10;;;;;;;12.46;82.99;95306.28;4392999;32;20251;-46
2023/03/30 03:24:51;;;;;;;2.10;0.97;;;;;;;12.41;83.43;95301.88;4376518;32;20180;-48
2023/03/30 03:27:17;;;;;;;1.57;1.07;;;;;;;12.39;84.06;95291.53;4382797;32;20211;-49
2023/03/30 03:29:42;;;;;;;1.07;0.97;;;;;;;12.27;86.50;95285.97;4378652;32;20204;-47
2023/03/30 03:32:07;;;;;;;2.30;1.17;;;;;;;12.22;87.46;95286.12;4390037;32;20188;-48
2023/03/30 03:34:33;;;;;;;4.63;1.17;;;;;;;12.28;87.58;95279.56;4391433;32;20187;-49
2023/03/30 03:36:58;;;;;;;0.83;0.63;;;;;;;12.20;88.10;95266.25;4388174;32;20214;-49
2023/03/30 03:39:23;;;;;;;0.63;0.63;;;;;;;12.21;89.40;95263.28;4389398;32;20252;-46
2023/03/30 03:41:49;;;;;;;0.70;0.70;;;;;;;12.24;89.41;95257.34;4392069;32;20239;-47
2023/03/30 03:44:15;;;;;;;4.73;1.13;;;;;;;12.18;90.20;95255.13;4388708;32;20245;-48
2023/03/30 03:46:40;;;;;;;1.83;0.97;;;;;;;12.21;89.97;95254.50;4378213;32;20184;-49
2023/03/30 03:49:06;;;;;;;0.97;0.93;;;;;;;12.21;90.09;95252.63;4386803;32;20181;-50
2023/03/30 03:51:32;;;;;;;6.13;1.33;;;;;;;12.21;90.82;95273.91;4382348;32;20267;-48
2023/03/30 03:53:58;;;;;;;4.30;1.03;;;;;;;12.14;91.92;95294.81;4384096;32;20180;-47
2023/03/30 03:56:24;;;;;;;0.87;0.87;;;;;;;12.21;92.86;95308.50;4383435;32;20197;-46
2023/03/30 03:58:50;;;;;;;5.07;1.13;;;;;;;12.23;93.47;95318.81;4386520;32;20181;-51
2023/03/30 04:01:16;;;;;;;2.93;1.13;;;;;;;12.14;94.90;95310.78;4391231;32;20245;-46
2023/03/30 04:03:41;;;;;;;2.00;1.27;;;;;;;12.13;95.66;95327.81;4370956;32;20216;-51
2023/03/30 04:06:06;;;;;;;1.20;0.77;;;;;;;11.97;97.64;95326.63;4389022;32;20296;-49
2023/03/30 04:08:32;;;;;;;0.90;0.90;;;;;;;11.96;98.53;95331.16;4391738;32;20196;-49
2023/03/30 04:11:10;;;;;;;1.40;1.30;;;;;;;11.93;98.79;95341.59;4387600;32;20185;-49
2023/03/30 04:13:37;;;;;;;8.90;1.90;;;;;;;11.92;98.77;95342.69;4379158;32;20180;-51
2023/03/30 04:16:03;;;;;;;10.73;1.93;;;;;;;11.85;99.27;95334.31;4377130;32;20318;-49
2023/03/30 04:18:32;;;;;;;0.87;0.83;;;;;;;11.81;99.78;95323.53;4376918;32;20188;-51
2023/03/30 04:21:01;;;;;;;1.50;1.23;;;;;;;11.92;100.00;95321.41;4390257;32;20216;-50
2023/03/30 04:23:29;;;;;;;5.20;2.00;;;;;;;11.78;100.00;95318.03;4374218;32;20184;-49
2023/03/30 04:25:56;;;;;;;1.60;1.20;;;;;;;11.80;100.00;95321.16;4385481;32;20220;-50
2023/03/30 04:28:23;;;;;;;0.77;0.77;;;;;;;11.82;100.00;95335.72;4373990;32;20241;-50
2023/03/30 04:30:49;;;;;;;1.40;1.30;;;;;;;11.86;100.00;95334.03;4377291;32;20193;-46
2023/03/30 04:33:15;;;;;;;2.73;1.73;;;;;;;11.75;100.00;95337.97;4377940;32;20188;-50
2023/03/30 04:35:40;;;;;;;1.83;1.10;;;;;;;11.85;100.00;95340.44;4392180;32;20204;-53
2023/03/30 04:38:06;;;;;;;4.33;1.30;;;;;;;11.91;100.00;95355.19;4381216;32;20182;-51
2023/03/30 04:40:32;;;;;;;5.23;1.20;;;;;;;11.87;100.00;95358.72;4368577;32;20299;-50
2023/03/30 04:43:02;;;;;;;3.10;1.27;;;;;;;11.83;100.00;95355.91;4374191;32;20192;-51
2023/03/30 04:45:29;;;;;;;3.80;1.73;;;;;;;11.75;100.00;95366.44;4391799;32;20176;-51
2023/03/30 04:47:55;;;;;;;4.37;1.87;;;;;;;11.72;100.00;95362.50;4376897;32;20176;-51
2023/03/30 04:50:20;;;;;;;3.33;1.87;;;;;;;11.80;100.00;95369.00;4388506;32;20207;-48
2023/03/30 04:52:46;;;;;;;3.57;2.27;;;;;;;11.66;100.00;95376.97;4387511;32;20210;-48
2023/03/30 04:55:11;;;;;;;4.90;1.97;;;;;;;11.64;100.00;95371.94;4376153;32;20248;-51
2023/03/30 04:57:36;;;;;;;1.30;1.20;;;;;;;11.64;100.00;95377.25;4375426;32;20231;-49
2023/03/30 05:00:05;;;;;;;0.70;0.70;;;;;;;11.66;100.00;95361.81;4387779;32;20310;-48
2023/03/30 05:02:31;;;;;;;1.70;0.87;;;;;;;11.61;100.00;95367.25;4372295;32;20185;-50
2023/03/30 05:04:56;;;;;;;2.00;1.13;;;;;;;11.63;100.00;95354.47;4376620;32;20188;-49
2023/03/30 05:07:21;;;;;;;3.53;1.67;;;;;;;11.62;100.00;95350.22;4389537;32;20206;-51
2023/03/30 05:09:47;;;;;;;1.10;1.10;;;;;;;11.62;100.00;95342.25;4389350;32;20281;-51
2023/03/30 05:12:14;;;;;;;0.93;0.93;;;;;;;11.63;100.00;95335.84;4377162;32;20219;-46
2023/03/30 05:14:39;;;;;;;2.77;1.57;;;;;;;11.80;100.00;95334.47;4386218;32;20299;-49
2023/03/30 05:17:05;;;;;;;18.17;2.93;;;;;;;11.80;100.00;95329.94;4374415;32;20185;-50
2023/03/30 05:19:30;;;;;;;1.73;1.63;;;;;;;11.79;100.00;95331.00;4387059;32;20184;-46
2023/03/30 05:21:55;;;;;;;4.73;1.57;;;;;;;11.80;100.00;95331.81;4385325;32;20220;-48
2023/03/30 05:24:21;;;;;;;1.53;1.13;;;;;;;11.74;100.00;95327.66;4384108;32;20253;-48
2023/03/30 05:26:46;;;;;;;1.37;1.27;;;;;;;11.77;100.00;95329.75;4383997;32;20204;-51
2023/03/30 05:29:11;;;;;;;1.90;0.77;;;;;;;11.78;100.00;95326.00;4384369;32;20252;-49
2023/03/30 05:31:37;;;;;;;11.67;1.20;;;;;;;11.78;100.00;95323.34;4370306;32;20239;-48
2023/03/30 05:34:02;;;;;;;0.90;0.77;;;;;;;11.85;100.00;95319.16;4369245;32;20188;-49
2023/03/30 05:36:28;;;;;;;4.27;1.40;;;;;;;11.93;100.00;95321.09;4369865;32;20197;-47
2023/03/30 05:38:53;;;;;;;0.87;0.87;;;;;;;11.92;100.00;95308.91;4383821;32;20223;-50
2023/03/30 05:41:18;;;;;;;3.90;1.60;;;;;;;11.87;100.00;95310.88;4387369;32;20196;-48
2023/03/30 05:43:44;;;;;;;3.60;1.67;;;;;;;11.87;100.00;95305.56;4388279;32;20192;-48
2023/03/30 05:46:09;;;;;;;9.30;2.83;;;;;;;11.88;100.00;95301.81;4378874;32;20233;-47
2023/03/30 05:48:35;;;;;;;1.17;1.13;;;;;;;11.81;100.00;95299.59;4385298;32;20262;-50
2023/03/30 05:51:00;;;;;;;2.33;1.23;;;;;;;11.66;100.00;95295.38;4383340;32;20198;-49
2023/03/30 05:53:26;;;;;;;4.30;1.60;;;;;;;11.77;100.00;95290.66;4379044;32;20259;-47
2023/03/30 05:55:51;;;;;;;1.80;1.10;;;;;;;11.80;100.00;95291.94;4389835;32;20253;-50
2023/03/30 05:58:17;;;;;;;1.13;1.13;;;;;;;11.69;100.00;95270.06;4383318;32;20205;-47
2023/03/30 06:00:43;;;;;;;1.27;1.20;;;;;;;11.54;100.00;95273.88;4382074;32;20219;-56
2023/03/30 06:03:10;;;;;;;2.60;1.47;;;;;;;11.64;100.00;95260.34;4369990;32;20230;-49
2023/03/30 06:05:40;;;;;;;1.73;1.63;;;;;;;11.65;100.00;95258.47;4382187;32;20219;-48
2023/03/30 06:08:06;;;;;;;0.93;0.80;;;;;;;11.60;100.00;95250.63;4383824;32;20200;-49
2023/03/30 06:10:33;;;;;;;1.37;1.27;;;;;;;11.53;100.00;95251.03;4387611;32;20271;-49
2023/03/30 06:12:58;;;;;;;2.27;1.70;;;;;;;11.49;100.00;95241.31;4390067;32;20184;-50
2023/03/30 06:15:23;;;;;;;1.47;1.37;;;;;;;11.50;100.00;95242.88;4387845;32;20245;-46
2023/03/30 06:17:50;;;;;;;2.73;1.03;;;;;;;11.41;100.00;95232.22;4375738;32;20192;-47
2023/03/30 06:20:16;;;;;;;7.03;1.70;;;;;;;11.39;100.00;95230.94;4390186;32;20216;-46
2023/03/30 06:22:41;;;;;;;1.63;1.27;;;;;;;11.25;100.00;95217.69;4386451;32;20184;-45
2023/03/30 06:25:08;;;;;;;3.60;2.20;;;;;;;11.34;100.00;95219.34;4392641;32;20180;-46
2023/03/30 06:27:34;;;;;;;3.90;2.20;;;;;;;11.25;100.00;95218.47;4389972;32;20189;-49
2023/03/30 06:30:00;;;;;;;6.87;1.83;;;;;;;11.26;100.00;95211.28;4378827;32;20192;-48
2023/03/30 06:32:26;;;;;;;7.63;1.30;;;;;;;11.20;100.00;95205.31;4391200;32;20242;-48
2023/03/30 06:34:52;;;;;;;2.47;1.43;;;;;;;11.26;100.00;95193.47;4390348;32;20193;-48
2023/03/30 06:37:18;;;;;;;14.93;3.30;;;;;;;11.26;100.00;95195.34;4378617;32;20195;-41
2023/03/30 06:39:44;;;;;;;10.20;1.23;;;;;;;11.76;100.00;95187.28;4387653;32;20241;-42
2023/03/30 06:42:10;;;;;;;1.57;1.47;;;;;;;12.23;100.00;95183.97;4390491;32;20202;-42
2023/03/30 06:44:35;;;;;;;1.07;1.07;;;;;;;12.14;100.00;95188.44;4376110;32;20197;-42
2023/03/30 06:47:01;;;;;;;3.67;2.00;;;;;;;12.47;100.00;95178.25;4391543;32;20184;-42
2023/03/30 06:49:26;;;;;;;9.57;2.83;;;;;;;12.55;100.00;95161.53;4388490;32;20199;-42
2023/03/30 06:51:51;;;;;;;2.40;1.47;;;;;;;12.20;100.00;95152.66;4372196;32;20180;-40
2023/03/30 06:54:19;;;;;;;5.40;2.90;;;;;;;12.03;100.00;95161.34;4390178;32;20192;-41
2023/03/30 06:56:46;;;;;;;4.60;1.70;;;;;;;11.86;100.00;95161.25;4382838;32;20235;-41
2023/03/30 06:59:12;;;;;;;7.50;2.10;;;;;;;12.05;100.00;95153.09;4391050;32;20210;-49
2023/03/30 07:01:37;;;;;;;2.20;1.20;;;;;;;11.98;100.00;95147.41;4391508;32;20181;-47
2023/03/30 07:04:03;;;;;;;1.30;0.87;;;;;;;11.87;100.00;95135.44;4375873;32;20201;-50
2023/03/30 07:06:28;;;;;;;7.77;1.70;;;;;;;11.73;100.00;95129.41;4369220;32;20252;-49
2023/03/30 07:08:54;;;;;;;1.90;1.10;;;;;;;11.50;100.00;95129.44;4385019;32;20184;-51
2023/03/30 07:11:19;;;;;;;0.47;0.47;;;;;;;11.55;100.00;95115.25;4391362;32;20185;-50
2023/03/30 07:13:44;;;;;;;2.17;1.23;;;;;;;11.53;100.00;95120.09;4387570;32;20216;-47
2023/03/30 07:16:10;;;;;;;4.30;1.40;;;;;;;11.49;100.00;95117.25;4387467;32;20207;-50
2023/03/30 07:18:35;;;;;;;4.33;1.53;;;;;;;11.60;100.00;95118.59;4382710;32;20211;-46
2023/03/30 07:21:00;;;;;;;1.73;1.63;;;;;;;11.63;100.00;95110.00;4375681;32;20261;-48
2023/03/30 07:23:26;;;;;;;0.83;0.83;;;;;;;11.67;100.00;95105.63;4383465;32;20193;-47
2023/03/30 07:25:51;;;;;;;0.50;0.50;;;;;;;11.71;100.00;95103.16;4372888;32;20203;-47
2023/03/30 07:28:17;;;;;;;0.73;0.73;;;;;;;11.78;100.00;95108.06;4392307;32;20196;-48
2023/03/30 07:30:42;;;;;;;7.97;1.73;;;;;;;11.80;100.00;95097.91;4384518;32;20184;-48
2023/03/30 07:33:08;;;;;;;1.23;1.17;;;;;;;12.77;100.00;95101.28;4392001;32;20229;-43
2023/03/30 07:35:33;;;;;;;1.60;1.43;;;;;;;13.85;97.04;95113.59;4371250;32;20226;-44
2023/03/30 07:37:59;;;;;;;5.60;1.40;;;;;;;13.64;95.81;95100.94;4389679;32;20191;-42
2023/03/30 07:40:24;;;;;;;4.43;1.17;;;;;;;13.81;94.83;95104.66;4390194;32;20260;-44
2023/03/30 07:42:49;;;;;;;0.57;0.57;;;;;;;14.88;89.32;95110.44;4377687;32;20180;-41
2023/03/30 07:45:15;;;;;;;1.10;1.00;;;;;;;15.65;85.37;95109.00;4385034;32;20176;-50
2023/03/30 07:47:41;;;;;;;0.77;0.77;;;;;;;15.45;84.57;95109.78;4387769;32;20245;-48
2023/03/30 07:50:07;;;;;;;2.63;0.87;;;;;;;14.52;88.67;95112.88;4372714;32;20185;-48
2023/03/30 07:52:33;;;;;;;1.50;0.90;;;;;;;13.99;91.38;95116.84;4387299;32;21441;-48
2023/03/30 07:54:58;;;;;;;4.33;1.20;;;;;;;13.56;93.65;95123.06;4374068;32;20189;-47
2023/03/30 07:57:24;;;;;;;3.87;1.17;;;;;;;13.22;95.57;95121.22;4380155;32;20290;-46
2023/03/30 07:59:49;;;;;;;0.70;0.70;;;;;;;13.06;96.60;95112.91;4367926;32;20193;-51
2023/03/30 08:02:16;;;;;;;2.17;1.17;;;;;;;12.95;97.64;95116.97;4387652;32;20191;-52
2023/03/30 08:04:43;;;;;;;0.90;0.90;;;;;;;12.72;98.83;95102.22;4376720;32;20203;-43
2023/03/30 08:07:09;;;;;;;18.37;1.50;;;;;;;13.14;99.70;95089.22;4377859;32;20259;-44
2023/03/30 08:09:34;;;;;;;1.73;1.63;;;;;;;14.15;93.78;95085.84;4384281;32;20176;-43
2023/03/30 08:12:00;;;;;;;1.57;1.00;;;;;;;14.94;89.55;95101.13;4376776;32;20204;-43
2023/03/30 08:14:26;;;;;;;0.50;0.50;;;;;;;14.76;89.58;95075.63;4376988;32;20235;-43
2023/03/30 08:16:55;;;;;;;0.83;0.70;;;;;;;14.03;92.47;95061.75;4389043;32;20200;-45
2023/03/30 08:19:23;;;;;;;0.63;0.47;;;;;;;14.81;90.04;95043.38;4388583;32;20204;-43
2023/03/30 08:21:48;;;;;;;1.30;1.13;;;;;;;15.87;84.41;95057.00;4387167;32;20204;-44
2023/03/30 08:24:14;;;;;;;2.00;0.60;;;;;;;16.05;83.53;95049.53;4376324;32;20211;-48
2023/03/30 08:26:39;;;;;;;0.67;0.67;;;;;;;16.38;81.96;95057.47;4389374;32;20184;-43
2023/03/30 08:29:05;;;;;;;1.33;1.23;;;;;;;16.07;81.56;95052.66;4379685;32;20285;-47
2023/03/30 08:31:31;;;;;;;1.40;1.30;;;;;;;16.80;79.72;95057.97;4388977;32;20209;-43
2023/03/30 08:33:57;;;;;;;1.10;0.60;;;;;;;17.50;76.35;95048.41;4391218;32;20192;-49
2023/03/30 08:36:23;;;;;;;0.93;0.83;;;;;;;16.64;79.27;95043.69;4381136;32;20188;-49
2023/03/30 08:38:49;;;;;;;5.93;1.23;;;;;;;15.59;83.68;95043.44;4385398;32;20292;-50
2023/03/30 08:41:28;;;;;;;8.53;1.83;;;;;;;14.90;87.29;95044.09;4374875;32;20177;-48
2023/03/30 08:43:57;;;;;;;3.20;1.03;;;;;;;14.51;89.58;95058.69;4370448;32;20177;-51
2023/03/30 08:46:23;;;;;;;2.50;1.20;;;;;;;14.36;90.47;95051.97;4372279;32;20207;-50
2023/03/30 08:48:52;;;;;;;2.97;0.87;;;;;;;14.20;91.32;95047.53;4387055;32;20189;-46
2023/03/30 08:51:23;;;;;;;1.40;1.30;;;;;;;13.92;92.30;95041.88;4376960;32;20231;-46
2023/03/30 08:54:00;;;;;;;2.50;1.07;;;;;;;13.84;92.97;95050.69;4382339;32;20197;-46
2023/03/30 08:56:30;;;;;;;5.37;1.23;;;;;;;13.72;93.34;95051.34;4372087;32;20200;-49
2023/03/30 08:59:22;;;;;;;2.03;0.77;;;;;;;13.68;93.30;95053.91;4377006;32;20177;-52
2023/03/30 09:01:59;;;;;;;1.47;1.03;;;;;;;13.73;93.63;95040.38;4375370;32;20200;-45
2023/03/30 09:04:42;;;;;;;1.30;1.13;;;;;;;13.66;94.42;95040.09;4372187;32;20222;-49
2023/03/30 09:07:08;;;;;;;2.33;1.23;;;;;;;13.71;95.65;95039.16;4380474;32;20235;-46
2023/03/30 09:09:41;;;;;;;0.80;0.80;;;;;;;13.78;95.19;95034.09;4391003;32;20205;-50
2023/03/30 09:12:15;;;;;;;0.70;0.70;;;;;;;14.02;94.72;95028.19;4377852;32;20271;-49
2023/03/30 09:14:47;;;;;;;1.10;1.10;;;;;;;14.09;94.22;95033.78;4382275;32;20208;-50
2023/03/30 09:17:20;;;;;;;2.80;1.57;;;;;;;14.27;93.66;95053.94;4386219;32;20214;-50
2023/03/30 09:20:15;;;;;;;1.30;1.23;;;;;;;14.37;93.64;95050.88;4384677;32;20189;-52
2023/03/30 09:22:43;;;;;;;5.20;1.13;;;;;;;14.39;93.42;95024.66;4375456;32;20192;-49
2023/03/30 09:25:18;;;;;;;2.10;1.33;;;;;;;14.52;92.94;95044.25;4389995;32;20238;-51
2023/03/30 09:27:59;;;;;;;1.23;1.17;;;;;;;14.56;92.59;95028.34;4384703;32;20207;-51
2023/03/30 09:30:40;;;;;;;1.87;1.10;;;;;;;14.59;91.86;95046.37;4385988;32;20188;-50
2023/03/30 09:33:16;;;;;;;1.20;1.13;;;;;;;14.69;91.29;95054.78;4384053;32;20192;-48
2023/03/30 09:35:49;;;;;;;3.97;1.50;;;;;;;14.72;90.74;95048.03;4386921;32;20184;-49
2023/03/30 09:38:15;;;;;;;1.27;1.27;;;;;;;14.77;89.78;95045.13;4387493;32;20192;-51
2023/03/30 09:40:43;;;;;;;9.77;1.90;;;;;;;14.88;89.63;95057.00;4391907;32;20199;-51
2023/03/30 09:43:33;;;;;;;2.83;1.23;;;;;;;15.02;89.14;95049.50;4388076;32;20255;-52
2023/03/30 09:46:02;;;;;;;2.83;1.13;;;;;;;15.18;88.03;95038.19;4388801;32;20212;-50
2023/03/30 09:48:27;;;;;;;1.50;1.03;;;;;;;15.21;85.78;95051.69;4381194;32;20198;-50
2023/03/30 09:50:53;;;;;;;8.37;1.07;;;;;;;15.25;84.87;95054.47;4386078;32;20189;-48
2023/03/30 09:53:23;;;;;;;1.33;1.07;;;;;;;15.33;84.25;95046.37;4390895;32;20199;-50
2023/03/30 09:56:15;;;;;;;7.17;1.73;;;;;;;15.30;84.29;95054.28;4387349;32;20181;-49
2023/03/30 09:58:41;;;;;;;2.43;1.40;;;;;;;15.29;84.74;95058.84;4377052;32;20251;-48
2023/03/30 10:01:11;;;;;;;4.20;2.90;;;;;;;15.34;83.28;95057.88;4377360;32;20189;-49
2023/03/30 10:03:37;;;;;;;0.77;0.77;;;;;;;15.45;82.83;95053.66;4389918;32;20177;-49
2023/03/30 10:06:16;;;;;;;0.77;0.77;;;;;;;15.48;82.45;95053.00;4375341;32;20180;-51
2023/03/30 10:08:47;;;;;;;0.40;0.40;;;;;;;15.44;82.27;95044.84;4367432;32;20184;-49
2023/03/30 10:11:12;;;;;;;6.37;1.80;;;;;;;15.31;82.90;95053.16;4378996;32;20206;-51
2023/03/30 10:13:42;;;;;;;4.57;1.43;;;;;;;15.53;80.46;95049.34;4392763;32;20184;-52
2023/03/30 10:16:29;;;;;;;0.60;0.60;;;;;;;15.64;80.52;95040.56;4369153;32;20184;-47
2023/03/30 10:19:01;;;;;;;0.70;0.70;;;;;;;15.72;79.71;95037.03;4390638;32;20181;-51
2023/03/30 10:21:35;;;;;;;2.20;0.70;;;;;;;15.79;78.51;95047.19;4371089;32;20254;-49
2023/03/30 10:24:02;;;;;;;1.13;0.97;;;;;;;15.97;78.54;95039.72;4386664;32;20188;-48
2023/03/30 10:26:30;;;;;;;0.50;0.50;;;;;;;16.08;77.25;95038.16;4378219;32;20246;-48
2023/03/30 10:29:06;;;;;;;0.97;0.97;;;;;;;15.98;77.07;95038.63;4388158;32;20188;-50
2023/03/30 10:31:37;;;;;;;2.07;1.53;;;;;;;16.06;76.09;95040.38;4390956;32;20226;-48
2023/03/30 10:34:05;;;;;;;4.13;1.13;;;;;;;16.11;73.83;95042.84;4387042;32;20192;-49
2023/03/30 10:36:37;;;;;;;5.20;1.87;;;;;;;16.22;74.58;95054.66;4378762;32;20192;-49
2023/03/30 10:39:16;;;;;;;3.53;1.23;;;;;;;16.20;73.16;95051.56;4382681;32;20202;-45
2023/03/30 10:41:43;;;;;;;0.87;0.87;;;;;;;16.30;73.29;95053.00;4386100;32;20201;-48
2023/03/30 10:44:18;;;;;;;2.40;1.23;;;;;;;16.19;72.26;95065.28;4381329;32;20188;-52
2023/03/30 10:46:44;;;;;;;2.73;1.17;;;;;;;16.27;72.91;95089.25;4390510;32;20290;-52
2023/03/30 10:49:31;;;;;;;0.73;0.73;;;;;;;16.19;72.15;95086.69;4389407;32;20192;-52
2023/03/30 10:51:56;;;;;;;1.37;0.60;;;;;;;15.99;74.03;95083.78;4371917;32;20223;-48
2023/03/30 10:54:33;;;;;;;2.33;1.67;;;;;;;15.90;73.04;95091.09;4378521;32;20237;-51
2023/03/30 10:57:20;;;;;;;3.10;0.83;;;;;;;15.91;72.67;95099.91;4389492;32;20234;-51
2023/03/30 11:00:18;;;;;;;0.87;0.87;;;;;;;15.82;74.31;95116.06;4372104;32;20184;-54
2023/03/30 11:02:53;;;;;;;0.80;0.80;;;;;;;15.72;75.34;95127.19;4389110;32;20224;-48
2023/03/30 11:05:42;;;;;;;1.53;1.43;;;;;;;15.73;75.39;95128.75;4374263;32;20184;-51
2023/03/30 11:08:20;;;;;;;0.63;0.63;;;;;;;15.70;76.25;95138.22;4386348;32;20223;-47
2023/03/30 11:10:53;;;;;;;1.37;1.37;;;;;;;15.64;77.87;95136.84;4374587;32;20229;-49
2023/03/30 11:13:24;;;;;;;15.17;1.57;;;;;;;15.56;77.89;95140.41;4377406;32;20230;-47
2023/03/30 11:15:52;;;;;;;6.67;1.53;;;;;;;15.56;76.85;95150.31;4390674;32;20200;-50
2023/03/30 11:18:24;;;;;;;0.53;0.53;;;;;;;15.43;77.63;95152.09;4387629;32;20232;-49
2023/03/30 11:20:55;;;;;;;5.20;1.83;;;;;;;15.39;78.52;95153.87;4381908;32;20197;-46
2023/03/30 11:23:48;;;;;;;6.27;1.60;;;;;;;15.21;79.34;95171.16;4387797;32;20219;-48
2023/03/30 11:26:37;;;;;;;0.80;0.80;;;;;;;15.13;80.13;95172.81;4381595;32;20184;-49
2023/03/30 11:29:33;;;;;;;0.93;0.87;;;;;;;15.01;82.26;95168.16;4384681;32;20248;-51
2023/03/30 11:32:13;;;;;;;2.37;1.73;;;;;;;14.94;83.68;95175.13;4386855;32;20241;-50
2023/03/30 11:35:00;;;;;;;1.20;1.17;;;;;;;14.84;85.66;95194.19;4389952;32;20253;-46
2023/03/30 11:37:44;;;;;;;1.63;0.93;;;;;;;14.64;86.16;95201.06;4370076;32;20204;-49
2023/03/30 11:40:17;;;;;;;1.23;1.10;;;;;;;14.29;84.81;95193.16;4389840;32;20184;-47
2023/03/30 11:42:43;;;;;;;0.77;0.73;;;;;;;14.30;86.83;95199.28;4378220;32;20201;-48
2023/03/30 11:45:35;;;;;;;0.50;0.50;;;;;;;14.31;86.70;95204.31;4389085;32;20185;-49
2023/03/30 11:48:16;;;;;;;1.10;0.97;;;;;;;13.93;85.76;95211.44;4332431;32;20204;-49